Time;durP1;ratioP1;P1;durP2;ratioP2;P2;SDS_P1;SDS_P2;PMS_P1;PMS_P2;Temp;Humidity;BMP_temperature;BMP_pressure;BME280_temperature;BME280_humidity;BME280_pressure;Samples;Min_cycle;Max_cycle;Signal;HPM_P1;HPM_P2
2021/08/30 00:01:50;;;;;;;4.47;3.87;;;13.50;99.90;;;;;;5034300;28;20871;-71
2021/08/30 00:04:17;;;;;;;4.73;3.37;;;13.50;99.90;;;;;;5033660;28;20959;-71
2021/08/30 00:06:44;;;;;;;4.00;3.70;;;13.50;99.90;;;;;;5034013;28;20848;-71
2021/08/30 00:09:11;;;;;;;4.50;4.10;;;13.50;99.90;;;;;;5033351;28;20502;-71
2021/08/30 00:11:38;;;;;;;3.87;3.57;;;13.50;99.90;;;;;;5033913;28;20559;-71
2021/08/30 00:14:05;;;;;;;4.10;3.80;;;13.50;99.90;;;;;;5034124;28;20463;-71
2021/08/30 00:16:33;;;;;;;4.90;4.50;;;13.50;99.90;;;;;;5033505;28;20515;-71
2021/08/30 00:19:00;;;;;;;5.17;4.67;;;13.50;99.90;;;;;;5033393;28;20468;-72
2021/08/30 00:21:27;;;;;;;6.00;4.70;;;13.50;99.90;;;;;;5033339;28;20471;-71
2021/08/30 00:23:53;;;;;;;5.37;4.87;;;13.50;99.90;;;;;;5033706;28;20982;-71
2021/08/30 00:26:20;;;;;;;5.70;5.20;;;13.60;99.90;;;;;;5033339;28;20488;-71
2021/08/30 00:28:47;;;;;;;5.70;5.07;;;13.50;99.90;;;;;;5033225;28;20464;-71
2021/08/30 00:31:14;;;;;;;6.07;5.47;;;13.50;99.90;;;;;;5033571;28;20960;-72
2021/08/30 00:33:42;;;;;;;6.03;5.43;;;13.50;99.90;;;;;;5033515;28;20467;-71
2021/08/30 00:36:09;;;;;;;6.47;5.87;;;13.50;99.90;;;;;;5033361;28;21014;-72
2021/08/30 00:38:35;;;;;;;5.50;5.00;;;13.60;99.90;;;;;;5042364;28;20459;-72
2021/08/30 00:41:03;;;;;;;6.27;5.67;;;13.60;99.90;;;;;;5053211;28;20463;-71
2021/08/30 00:43:30;;;;;;;5.93;5.43;;;13.60;99.90;;;;;;5053250;28;20815;-72
2021/08/30 00:45:57;;;;;;;5.60;5.10;;;13.60;99.90;;;;;;5053188;28;20459;-72
2021/08/30 00:48:24;;;;;;;6.10;5.60;;;13.60;99.90;;;;;;5052458;28;20530;-72
2021/08/30 00:50:52;;;;;;;5.93;5.43;;;13.60;99.90;;;;;;5053029;28;20541;-72
2021/08/30 00:53:18;;;;;;;5.77;5.27;;;13.60;99.90;;;;;;5052949;28;20997;-71
2021/08/30 00:55:45;;;;;;;6.20;5.60;;;13.60;99.90;;;;;;5052849;28;20459;-72
2021/08/30 00:58:12;;;;;;;6.50;5.90;;;13.60;99.90;;;;;;5052324;28;20491;-71
2021/08/30 01:00:38;;;;;;;6.07;5.57;;;13.60;99.90;;;;;;5052782;28;20846;-71
2021/08/30 01:03:05;;;;;;;6.17;5.60;;;13.60;99.90;;;;;;5052821;28;20468;-71
2021/08/30 01:05:32;;;;;;;7.30;6.70;;;13.60;99.90;;;;;;5051908;28;20510;-71
2021/08/30 01:08:09;;;;;;;6.63;6.03;;;13.60;99.90;;;;;;5050605;28;20483;-71
2021/08/30 01:10:46;;;;;;;6.90;6.30;;;13.60;99.90;;;;;;5049545;28;20455;-72
2021/08/30 01:13:17;;;;;;;6.30;5.80;;;13.60;99.90;;;;;;5052609;28;20474;-71
2021/08/30 01:15:45;;;;;;;7.83;7.13;;;13.60;99.90;;;;;;5052785;28;20455;-72
2021/08/30 01:18:16;;;;;;;6.43;5.93;;;13.60;99.90;;;;;;5051675;28;20487;-71
2021/08/30 01:20:56;;;;;;;6.90;6.30;;;13.60;99.90;;;;;;5052482;28;20951;-71
2021/08/30 01:23:26;;;;;;;6.93;6.33;;;13.60;99.90;;;;;;5052103;28;20830;-71
2021/08/30 01:25:53;;;;;;;6.70;6.17;;;13.60;99.90;;;;;;5052706;28;20466;-71
2021/08/30 01:28:22;;;;;;;13.47;7.03;;;13.60;99.90;;;;;;5051910;28;20451;-71
2021/08/30 01:30:51;;;;;;;6.90;6.20;;;13.60;99.90;;;;;;5052685;28;20470;-71
2021/08/30 01:33:22;;;;;;;7.30;6.70;;;13.60;99.90;;;;;;5052137;28;20459;-71
2021/08/30 01:35:49;;;;;;;7.20;6.50;;;13.60;99.90;;;;;;5052875;28;20463;-72
2021/08/30 01:38:16;;;;;;;6.73;6.13;;;13.60;99.90;;;;;;5051769;28;20494;-71
2021/08/30 01:40:43;;;;;;;7.00;6.40;;;13.60;99.90;;;;;;5052235;28;20459;-72
2021/08/30 01:43:11;;;;;;;6.50;6.00;;;13.60;99.90;;;;;;5052342;28;20463;-71
2021/08/30 01:45:40;;;;;;;7.50;6.80;;;13.60;99.90;;;;;;5052122;28;20502;-72
2021/08/30 01:48:07;;;;;;;7.80;7.10;;;13.60;99.90;;;;;;5051759;28;20482;-72
2021/08/30 01:50:38;;;;;;;7.30;6.60;;;13.60;99.90;;;;;;5051930;28;20470;-71
2021/08/30 01:53:07;;;;;;;7.27;5.83;;;13.70;99.90;;;;;;5052476;28;20500;-71
2021/08/30 01:55:39;;;;;;;6.53;6.03;;;13.60;99.90;;;;;;5051955;28;20486;-71
2021/08/30 02:00:52;;;;;;;7.10;6.30;;;13.60;99.90;;;;;;5052102;28;20950;-71
2021/08/30 02:03:21;;;;;;;6.80;6.20;;;13.60;99.90;;;;;;5051674;28;20466;-71
2021/08/30 02:05:52;;;;;;;6.60;6.00;;;13.60;99.90;;;;;;5051921;28;20447;-71
2021/08/30 02:08:22;;;;;;;7.80;6.70;;;13.60;99.90;;;;;;5049659;28;20836;-71
2021/08/30 02:10:50;;;;;;;7.73;6.97;;;13.60;99.90;;;;;;5051625;28;20464;-71
2021/08/30 02:13:18;;;;;;;8.67;6.30;;;13.60;99.90;;;;;;5051212;28;20471;-72
2021/08/30 02:15:46;;;;;;;7.17;6.57;;;13.60;99.90;;;;;;5051424;28;20467;-72
2021/08/30 02:18:19;;;;;;;7.63;6.83;;;13.60;99.90;;;;;;5049478;28;20498;-72
2021/08/30 02:20:52;;;;;;;7.23;5.87;;;13.60;99.90;;;;;;5051238;28;20485;-71
2021/08/30 02:23:23;;;;;;;6.70;6.10;;;13.60;99.90;;;;;;5051212;28;20870;-71
2021/08/30 02:25:53;;;;;;;7.33;6.63;;;13.60;99.90;;;;;;5051120;28;20468;-72
2021/08/30 02:28:22;;;;;;;7.17;6.57;;;13.60;99.90;;;;;;5050508;28;20463;-71
2021/08/30 02:30:50;;;;;;;7.50;6.80;;;13.60;99.90;;;;;;5050944;28;20487;-71
2021/08/30 02:33:18;;;;;;;7.43;6.73;;;13.60;99.90;;;;;;5050981;28;20466;-71
2021/08/30 02:35:45;;;;;;;6.87;6.23;;;13.60;99.90;;;;;;5050927;28;20463;-72
2021/08/30 02:38:16;;;;;;;7.30;6.60;;;13.60;99.90;;;;;;5048804;28;20487;-71
2021/08/30 02:40:43;;;;;;;7.70;6.87;;;13.60;99.90;;;;;;5051170;28;20464;-71
2021/08/30 02:43:10;;;;;;;6.67;6.07;;;13.60;99.90;;;;;;5051392;28;20459;-72
2021/08/30 02:45:38;;;;;;;6.70;6.10;;;13.60;99.90;;;;;;5051168;28;20472;-72
2021/08/30 02:48:06;;;;;;;6.80;6.17;;;13.60;99.90;;;;;;5050401;28;20479;-71
2021/08/30 02:50:34;;;;;;;8.40;5.50;;;13.60;99.90;;;;;;5050981;28;20459;-71
2021/08/30 02:53:02;;;;;;;6.47;5.87;;;13.60;99.90;;;;;;5050693;28;20460;-72
2021/08/30 02:55:30;;;;;;;6.20;5.60;;;13.60;99.90;;;;;;5050667;28;20954;-72
2021/08/30 02:57:58;;;;;;;6.00;5.50;;;13.60;99.90;;;;;;5050012;28;20492;-72
2021/08/30 03:00:25;;;;;;;5.77;5.27;;;13.60;99.90;;;;;;5050494;28;20486;-72
2021/08/30 03:02:53;;;;;;;5.13;4.50;;;13.60;99.90;;;;;;5050576;28;20459;-72
2021/08/30 03:05:21;;;;;;;4.70;4.30;;;13.60;99.90;;;;;;5050276;28;20466;-72
2021/08/30 03:07:48;;;;;;;4.80;4.40;;;13.50;99.90;;;;;;5050068;28;20529;-72
2021/08/30 03:10:15;;;;;;;5.30;4.80;;;13.60;99.90;;;;;;5048377;28;20455;-72
2021/08/30 03:12:44;;;;;;;4.63;4.23;;;13.50;99.90;;;;;;5050515;28;20475;-72
2021/08/30 03:15:15;;;;;;;4.93;4.43;;;13.50;99.90;;;;;;5050273;28;20464;-72
2021/08/30 03:17:44;;;;;;;4.00;3.60;;;13.50;99.90;;;;;;5049834;28;20499;-72
2021/08/30 03:20:15;;;;;;;4.10;3.60;;;13.50;99.90;;;;;;5050121;28;20470;-72
2021/08/30 03:22:43;;;;;;;4.43;4.03;;;13.50;99.90;;;;;;5050572;28;20463;-72
2021/08/30 03:25:14;;;;;;;4.33;4.00;;;13.50;99.90;;;;;;5050346;28;20470;-72
2021/08/30 03:27:44;;;;;;;3.83;3.53;;;13.50;99.90;;;;;;5049349;28;20479;-72
2021/08/30 03:30:13;;;;;;;4.30;4.00;;;13.50;99.90;;;;;;5050047;28;20491;-72
2021/08/30 03:32:42;;;;;;;4.10;3.53;;;13.50;99.90;;;;;;5040966;28;20456;-72
2021/08/30 03:35:10;;;;;;;3.80;3.50;;;13.50;99.90;;;;;;5034227;28;20460;-72
2021/08/30 03:37:38;;;;;;;3.57;3.27;;;13.50;99.90;;;;;;5038388;28;20565;-72
2021/08/30 03:40:07;;;;;;;3.90;3.60;;;13.50;99.90;;;;;;5040774;28;20456;-72
2021/08/30 03:42:34;;;;;;;3.57;3.27;;;13.50;99.90;;;;;;5037967;28;20463;-72
2021/08/30 03:45:02;;;;;;;4.03;3.73;;;13.50;99.90;;;;;;5041047;28;20455;-72
2021/08/30 03:47:29;;;;;;;4.00;3.70;;;13.50;99.90;;;;;;5039483;28;20840;-72
2021/08/30 03:49:57;;;;;;;4.60;4.20;;;13.50;99.90;;;;;;5038056;28;20447;-73
2021/08/30 03:52:25;;;;;;;4.03;3.73;;;13.50;99.90;;;;;;5037913;28;20205;-72
2021/08/30 03:54:52;;;;;;;4.70;4.30;;;13.50;99.90;;;;;;5033304;28;20464;-72
2021/08/30 03:57:18;;;;;;;4.53;4.13;;;13.50;99.90;;;;;;5034174;28;20491;-72
2021/08/30 03:59:51;;;;;;;4.60;4.20;;;13.50;99.90;;;;;;5039180;28;20462;-73
2021/08/30 04:02:19;;;;;;;5.40;4.47;;;13.50;99.90;;;;;;5039263;28;20467;-72
2021/08/30 04:04:47;;;;;;;5.20;4.70;;;13.50;99.90;;;;;;5038135;28;20456;-73
2021/08/30 04:07:14;;;;;;;6.23;4.57;;;13.50;99.90;;;;;;5045773;28;20471;-72
2021/08/30 04:09:41;;;;;;;5.23;4.80;;;13.50;99.90;;;;;;5046912;28;20463;-72
2021/08/30 04:12:09;;;;;;;5.60;5.10;;;13.50;99.90;;;;;;5042267;28;20467;-72
2021/08/30 04:14:36;;;;;;;5.20;4.70;;;13.50;99.90;;;;;;5049147;28;20463;-72
2021/08/30 04:17:03;;;;;;;4.70;4.30;;;13.50;99.90;;;;;;5040484;28;20487;-72
2021/08/30 04:19:31;;;;;;;4.87;4.47;;;13.50;99.90;;;;;;5038905;28;20452;-72
2021/08/30 04:21:57;;;;;;;5.57;5.07;;;13.50;99.90;;;;;;5039284;28;20466;-72
2021/08/30 04:24:24;;;;;;;6.27;5.20;;;13.50;99.90;;;;;;5049601;28;20451;-72
2021/08/30 04:26:51;;;;;;;5.47;4.97;;;13.50;99.90;;;;;;5049245;28;20471;-72
2021/08/30 04:29:17;;;;;;;5.83;5.33;;;13.50;99.90;;;;;;5047763;28;20462;-72
2021/08/30 04:31:44;;;;;;;5.67;5.10;;;13.50;99.90;;;;;;5047360;28;20455;-72
2021/08/30 04:34:11;;;;;;;5.93;5.20;;;13.50;99.90;;;;;;5047700;28;20471;-72
2021/08/30 04:36:39;;;;;;;7.33;5.73;;;13.60;99.90;;;;;;5047847;28;20484;-72
2021/08/30 04:39:06;;;;;;;6.30;5.70;;;13.60;99.90;;;;;;5047636;28;20693;-72
2021/08/30 04:41:33;;;;;;;7.67;6.40;;;13.60;99.90;;;;;;5051032;28;20471;-72
2021/08/30 04:43:59;;;;;;;7.77;6.97;;;13.60;99.90;;;;;;5051445;28;20841;-72
2021/08/30 04:46:27;;;;;;;6.83;6.00;;;13.60;99.90;;;;;;5052148;28;20506;-72
2021/08/30 04:48:54;;;;;;;9.00;7.47;;;13.60;99.90;;;;;;5052982;28;20463;-72
2021/08/30 04:51:20;;;;;;;8.13;7.30;;;13.60;99.90;;;;;;5053049;28;20466;-72
2021/08/30 04:53:48;;;;;;;8.00;7.20;;;13.60;99.90;;;;;;5053279;28;20467;-72
2021/08/30 04:56:15;;;;;;;8.03;7.23;;;13.60;99.90;;;;;;5052792;28;20490;-72
2021/08/30 04:58:42;;;;;;;8.20;7.40;;;13.60;99.90;;;;;;5052383;28;21002;-72
2021/08/30 05:01:08;;;;;;;8.40;7.60;;;13.60;99.90;;;;;;5053058;28;20467;-72
2021/08/30 05:03:35;;;;;;;9.33;7.87;;;13.60;99.90;;;;;;5052636;28;20467;-72
2021/08/30 05:06:02;;;;;;;8.80;7.90;;;13.60;99.90;;;;;;5053122;28;20460;-72
2021/08/30 05:08:29;;;;;;;8.83;7.53;;;13.60;99.90;;;;;;5052115;28;20901;-72
2021/08/30 05:10:57;;;;;;;9.95;8.43;;;13.60;99.90;;;;;;5053086;28;20829;-72
2021/08/30 05:13:24;;;;;;;8.73;7.67;;;13.60;99.90;;;;;;5052291;28;20220;-72
2021/08/30 05:15:51;;;;;;;8.20;7.37;;;13.60;99.90;;;;;;5052966;28;20501;-72
2021/08/30 05:18:17;;;;;;;7.07;6.17;;;13.60;99.90;;;;;;5051792;28;20850;-72
2021/08/30 05:20:49;;;;;;;7.57;6.57;;;13.60;99.90;;;;;;5052907;28;20464;-71
2021/08/30 05:23:15;;;;;;;7.60;6.30;;;13.60;99.90;;;;;;5134138;22;20540;-67
2021/08/30 05:25:42;;;;;;;7.10;6.33;;;13.60;99.90;;;;;;5071896;28;20459;-67
2021/08/30 05:28:10;;;;;;;8.03;7.03;;;13.60;99.90;;;;;;5071541;28;21004;-67
2021/08/30 05:30:37;;;;;;;9.20;8.20;;;13.60;99.90;;;;;;5071842;28;20493;-68
2021/08/30 05:33:04;;;;;;;10.03;8.43;;;13.60;99.90;;;;;;5072379;28;20462;-67
2021/08/30 05:35:31;;;;;;;10.80;9.70;;;13.60;99.90;;;;;;5071977;28;20853;-67
2021/08/30 05:37:58;;;;;;;9.20;8.27;;;13.70;99.90;;;;;;5071372;28;20508;-68
2021/08/30 05:40:25;;;;;;;10.17;8.63;;;13.60;99.90;;;;;;5072071;28;20537;-68
2021/08/30 05:42:51;;;;;;;10.47;9.37;;;13.70;99.90;;;;;;5071622;28;20833;-68
2021/08/30 05:45:19;;;;;;;10.27;9.27;;;13.70;99.90;;;;;;5071944;28;20466;-67
2021/08/30 05:47:47;;;;;;;10.50;9.47;;;13.70;99.90;;;;;;5070948;28;20485;-68
2021/08/30 05:50:14;;;;;;;11.03;9.73;;;13.60;99.90;;;;;;5071768;28;20454;-68
2021/08/30 05:52:40;;;;;;;9.80;8.77;;;13.70;99.90;;;;;;5071002;28;20473;-68
2021/08/30 05:55:08;;;;;;;10.57;9.20;;;13.60;99.90;;;;;;5072133;28;20466;-67
2021/08/30 05:57:34;;;;;;;11.33;9.33;;;13.70;99.90;;;;;;5070826;28;20478;-67
2021/08/30 06:00:01;;;;;;;8.27;7.47;;;13.70;99.90;;;;;;5055853;28;20459;-68
2021/08/30 06:02:29;;;;;;;8.63;7.72;;;13.80;99.90;;;;;;5051955;28;20467;-68
2021/08/30 06:04:55;;;;;;;8.07;7.27;;;13.70;99.90;;;;;;5051444;28;20205;-68
2021/08/30 06:07:22;;;;;;;7.73;6.90;;;13.80;99.90;;;;;;5051145;28;20994;-68
2021/08/30 06:09:49;;;;;;;8.83;7.13;;;13.80;99.90;;;;;;5051184;28;20455;-67
2021/08/30 06:12:15;;;;;;;8.75;7.85;;;13.80;99.90;;;;;;5051683;28;20459;-67
2021/08/30 06:14:42;;;;;;;8.45;7.50;;;13.80;99.90;;;;;;5051167;28;20212;-67
2021/08/30 06:17:09;;;;;;;9.10;7.55;;;13.80;99.90;;;;;;5061066;28;20224;-68
2021/08/30 06:19:37;;;;;;;8.53;7.73;;;13.80;99.90;;;;;;5070744;28;20220;-68
2021/08/30 06:22:06;;;;;;;9.33;8.33;;;13.80;99.90;;;;;;5058414;28;20478;-67
2021/08/30 06:24:33;;;;;;;9.17;8.23;;;13.80;99.90;;;;;;5051233;28;20936;-67
2021/08/30 06:26:59;;;;;;;7.50;6.70;;;13.80;99.90;;;;;;5051032;28;20884;-68
2021/08/30 06:29:26;;;;;;;10.80;8.20;;;13.80;99.90;;;;;;5050814;28;20462;-68
2021/08/30 06:31:53;;;;;;;8.37;7.20;;;13.90;99.90;;;;;;5050817;28;20464;-68
2021/08/30 06:34:19;;;;;;;9.47;8.03;;;13.90;99.90;;;;;;5051203;28;20516;-67
2021/08/30 06:36:47;;;;;;;8.43;7.57;;;13.90;99.90;;;;;;5050655;28;20483;-66
2021/08/30 06:39:14;;;;;;;8.63;7.53;;;13.90;99.90;;;;;;5050737;28;21030;-68
2021/08/30 06:41:41;;;;;;;8.47;7.67;;;14.00;99.90;;;;;;5050501;28;20997;-67
2021/08/30 06:44:07;;;;;;;8.70;7.50;;;14.00;99.90;;;;;;5050960;28;20493;-68
2021/08/30 06:46:34;;;;;;;8.73;7.50;;;14.10;99.90;;;;;;5050818;28;20486;-67
2021/08/30 06:49:01;;;;;;;9.33;7.80;;;14.10;99.90;;;;;;5050258;28;20455;-68
2021/08/30 06:51:28;;;;;;;8.93;7.90;;;14.10;99.90;;;;;;5049515;28;20463;-68
2021/08/30 06:53:56;;;;;;;8.50;7.60;;;14.10;99.90;;;;;;5050493;28;20833;-68
2021/08/30 06:56:23;;;;;;;8.70;7.80;;;14.20;99.90;;;;;;5049381;28;20835;-68
2021/08/30 06:58:50;;;;;;;9.50;8.50;;;14.20;99.90;;;;;;5048233;28;20490;-67
2021/08/30 07:01:16;;;;;;;6.87;6.20;;;14.20;99.90;;;;;;5050913;28;20486;-66
2021/08/30 07:03:43;;;;;;;8.83;7.97;;;14.30;99.90;;;;;;5049605;28;20462;-66
2021/08/30 07:06:10;;;;;;;9.90;8.57;;;14.30;99.90;;;;;;5050491;28;20471;-66
2021/08/30 07:08:37;;;;;;;8.90;7.90;;;14.40;99.90;;;;;;5050210;28;20832;-66
2021/08/30 07:11:05;;;;;;;8.33;7.50;;;14.40;99.90;;;;;;5049730;28;20467;-66
2021/08/30 07:13:31;;;;;;;10.60;8.30;;;14.40;99.90;;;;;;5050284;28;20471;-66
2021/08/30 07:15:58;;;;;;;8.63;7.83;;;14.50;99.90;;;;;;5049739;28;20459;-66
2021/08/30 07:18:25;;;;;;;8.40;7.60;;;14.50;99.90;;;;;;5050096;28;20858;-65
2021/08/30 07:20:52;;;;;;;9.30;7.90;;;14.50;99.90;;;;;;5050286;28;20463;-66
2021/08/30 07:23:19;;;;;;;8.50;7.60;;;14.50;99.90;;;;;;5050239;28;20467;-66
2021/08/30 07:25:46;;;;;;;8.70;7.80;;;14.50;99.90;;;;;;5050273;28;20463;-66
2021/08/30 07:28:14;;;;;;;10.80;9.40;;;14.50;99.90;;;;;;5049810;28;20490;-68
2021/08/30 07:30:40;;;;;;;10.27;9.17;;;14.60;99.90;;;;;;5041471;28;20468;-68
2021/08/30 07:33:07;;;;;;;9.77;8.50;;;14.60;99.90;;;;;;5049809;28;20456;-68
2021/08/30 07:35:34;;;;;;;9.80;8.80;;;14.80;99.90;;;;;;5034316;28;20460;-68
2021/08/30 07:38:00;;;;;;;9.17;8.27;;;14.90;99.90;;;;;;5029314;28;20480;-68
2021/08/30 07:40:27;;;;;;;11.07;8.47;;;14.90;99.90;;;;;;5029587;28;20482;-68
2021/08/30 07:42:54;;;;;;;8.70;7.90;;;14.90;99.90;;;;;;5033930;28;20466;-68
2021/08/30 07:45:22;;;;;;;9.30;8.33;;;14.90;99.90;;;;;;5036457;28;20461;-68
2021/08/30 07:47:49;;;;;;;11.30;7.90;;;14.90;99.90;;;;;;5032162;28;20495;-67
2021/08/30 07:50:16;;;;;;;8.13;7.07;;;14.90;99.90;;;;;;5031617;28;20475;-68
2021/08/30 07:52:43;;;;;;;9.20;8.30;;;14.90;99.90;;;;;;5042988;28;20455;-67
2021/08/30 07:55:12;;;;;;;9.17;8.10;;;14.90;99.90;;;;;;5038900;28;20460;-67
2021/08/30 07:57:39;;;;;;;9.03;7.53;;;14.90;99.90;;;;;;5048553;28;20475;-68
2021/08/30 08:00:06;;;;;;;9.10;7.80;;;15.00;99.90;;;;;;5049529;28;20912;-67
2021/08/30 08:02:34;;;;;;;8.57;7.67;;;15.00;99.90;;;;;;5049015;28;20459;-67
2021/08/30 08:05:01;;;;;;;8.73;6.87;;;14.90;99.90;;;;;;5033658;28;20464;-67
2021/08/30 08:07:28;;;;;;;8.43;7.17;;;15.00;99.90;;;;;;5040160;28;20475;-67
2021/08/30 08:09:54;;;;;;;9.00;7.50;;;15.00;99.90;;;;;;5040714;28;20461;-67
2021/08/30 08:12:21;;;;;;;7.53;6.50;;;14.90;99.90;;;;;;5029559;28;20452;-68
2021/08/30 08:14:48;;;;;;;8.93;6.73;;;14.90;99.90;;;;;;5029569;28;20475;-68
2021/08/30 08:17:15;;;;;;;6.93;6.20;;;14.80;99.90;;;;;;5033082;28;20476;-67
2021/08/30 08:19:43;;;;;;;8.60;6.70;;;14.80;99.90;;;;;;5032601;28;20480;-68
2021/08/30 08:22:10;;;;;;;8.30;7.00;;;14.80;99.90;;;;;;5033370;28;20472;-67
2021/08/30 08:24:36;;;;;;;7.60;6.80;;;14.80;99.90;;;;;;5032842;28;20496;-67
2021/08/30 08:27:03;;;;;;;7.50;6.80;;;14.80;99.90;;;;;;5033103;28;20995;-68
2021/08/30 08:29:30;;;;;;;7.87;6.83;;;14.80;99.90;;;;;;5049574;28;20828;-68
2021/08/30 08:31:57;;;;;;;7.20;6.10;;;14.80;99.90;;;;;;5052742;28;20826;-68
2021/08/30 08:34:24;;;;;;;7.47;6.73;;;14.80;99.90;;;;;;5052946;28;20455;-68
2021/08/30 08:36:52;;;;;;;7.30;6.37;;;14.80;99.90;;;;;;5052744;28;21028;-68
2021/08/30 08:39:19;;;;;;;7.00;6.33;;;14.80;99.90;;;;;;5052107;28;20486;-68
2021/08/30 08:41:45;;;;;;;7.57;6.77;;;14.90;99.90;;;;;;5043537;28;20468;-68
2021/08/30 08:44:12;;;;;;;8.50;6.50;;;14.90;99.90;;;;;;5041259;28;20470;-68
2021/08/30 08:46:39;;;;;;;6.73;6.03;;;14.90;99.90;;;;;;5052834;28;21025;-68
2021/08/30 08:49:06;;;;;;;7.13;6.37;;;14.90;99.90;;;;;;5052830;28;20462;-68
2021/08/30 08:51:33;;;;;;;6.63;5.47;;;14.90;99.90;;;;;;5052555;28;20464;-68
2021/08/30 08:54:01;;;;;;;7.10;6.40;;;14.90;99.90;;;;;;5053049;28;20462;-68
2021/08/30 08:56:28;;;;;;;6.40;5.80;;;14.90;99.90;;;;;;5053232;28;20479;-68
2021/08/30 08:58:55;;;;;;;6.50;5.90;;;14.90;99.90;;;;;;5052419;28;20491;-68
2021/08/30 09:01:25;;;;;;;6.83;6.13;;;14.90;99.90;;;;;;5053102;28;20463;-68
2021/08/30 09:03:55;;;;;;;8.43;6.63;;;14.90;99.90;;;;;;5052607;28;20497;-68
2021/08/30 09:06:27;;;;;;;6.37;5.73;;;14.90;99.90;;;;;;5053366;28;20569;-68
2021/08/30 09:08:57;;;;;;;6.40;5.80;;;14.90;99.90;;;;;;5052224;28;20936;-68
2021/08/30 09:11:34;;;;;;;7.17;6.40;;;14.90;99.90;;;;;;5051337;28;20556;-68
2021/08/30 09:14:01;;;;;;;7.00;6.30;;;14.90;99.90;;;;;;5052645;28;20463;-67
2021/08/30 09:16:28;;;;;;;5.80;5.20;;;14.90;99.90;;;;;;5052599;28;20506;-68
2021/08/30 09:19:04;;;;;;;6.23;5.43;;;14.90;99.90;;;;;;5051945;28;20502;-68
2021/08/30 09:21:30;;;;;;;6.70;5.67;;;15.00;99.90;;;;;;5052237;28;20455;-68
2021/08/30 09:24:08;;;;;;;6.73;6.03;;;15.20;99.90;;;;;;5051116;28;20852;-68
2021/08/30 09:26:43;;;;;;;6.70;6.10;;;15.40;99.90;;;;;;5051084;28;20475;-68
2021/08/30 09:29:15;;;;;;;9.57;5.97;;;15.50;99.90;;;;;;5031385;28;20459;-68
2021/08/30 09:31:42;;;;;;;7.57;6.87;;;15.80;99.90;;;;;;5048211;28;20801;-68
2021/08/30 09:34:12;;;;;;;7.23;6.50;;;15.80;99.90;;;;;;5051620;28;20820;-68
2021/08/30 09:36:42;;;;;;;7.43;6.63;;;15.80;99.90;;;;;;5051095;28;20475;-68
2021/08/30 09:39:09;;;;;;;8.40;7.50;;;15.80;99.90;;;;;;5051060;28;20525;-68
2021/08/30 09:41:43;;;;;;;8.70;7.90;;;15.90;99.90;;;;;;5051091;28;20463;-68
2021/08/30 09:44:10;;;;;;;8.53;7.67;;;15.80;99.90;;;;;;5031669;28;20534;-68
2021/08/30 09:46:37;;;;;;;9.23;8.03;;;15.80;99.90;;;;;;5031134;28;20507;-68
2021/08/30 09:49:06;;;;;;;9.90;8.70;;;15.80;99.90;;;;;;5030715;28;20457;-68
2021/08/30 09:51:37;;;;;;;10.90;8.97;;;15.80;99.90;;;;;;5031570;28;20463;-68
2021/08/30 09:54:04;;;;;;;8.97;8.13;;;15.80;99.90;;;;;;5047825;28;20464;-68
2021/08/30 09:56:36;;;;;;;9.33;8.37;;;15.90;99.90;;;;;;5051145;28;20471;-68
2021/08/30 09:59:05;;;;;;;9.17;8.27;;;15.90;99.90;;;;;;5049978;28;20502;-68
2021/08/30 10:01:35;;;;;;;9.77;8.60;;;15.80;99.90;;;;;;5050061;28;20459;-68
2021/08/30 10:04:04;;;;;;;9.43;8.43;;;15.80;99.90;;;;;;5031111;28;20890;-67
2021/08/30 10:06:30;;;;;;;11.90;8.07;;;15.80;99.90;;;;;;5031007;28;20846;-68
2021/08/30 10:08:59;;;;;;;9.60;8.60;;;15.70;99.90;;;;;;5030237;28;20952;-67
2021/08/30 10:11:26;;;;;;;10.20;8.60;;;15.70;99.90;;;;;;5038379;28;20452;-68
2021/08/30 10:13:52;;;;;;;10.73;8.80;;;15.60;99.90;;;;;;5048145;28;20521;-68
2021/08/30 10:16:21;;;;;;;9.60;8.63;;;15.50;99.90;;;;;;5047888;28;20482;-68
2021/08/30 10:18:49;;;;;;;9.23;8.17;;;15.40;99.90;;;;;;5046968;28;20463;-68
2021/08/30 10:21:19;;;;;;;9.43;8.50;;;15.40;99.90;;;;;;5048041;28;20525;-68
2021/08/30 10:23:48;;;;;;;10.57;9.47;;;15.40;99.90;;;;;;5047446;28;20467;-68
2021/08/30 10:26:17;;;;;;;10.57;9.57;;;15.40;99.90;;;;;;5048123;28;20823;-68
2021/08/30 10:28:45;;;;;;;10.77;9.10;;;15.40;99.90;;;;;;5042288;28;20555;-68
2021/08/30 10:31:17;;;;;;;10.10;9.10;;;15.40;99.90;;;;;;5037672;28;20460;-68
2021/08/30 10:33:52;;;;;;;10.00;9.10;;;15.50;99.90;;;;;;5027539;28;20459;-68
2021/08/30 10:36:22;;;;;;;11.40;9.90;;;15.60;99.90;;;;;;5028429;28;20535;-68
2021/08/30 10:39:02;;;;;;;10.17;9.17;;;15.80;99.90;;;;;;5026892;28;20460;-68
2021/08/30 10:41:35;;;;;;;10.27;9.10;;;15.80;99.90;;;;;;5028483;28;20499;-68
2021/08/30 10:44:12;;;;;;;10.67;9.30;;;15.80;99.90;;;;;;5028597;28;20464;-68
2021/08/30 10:46:43;;;;;;;10.17;9.17;;;15.70;99.90;;;;;;5028049;28;20499;-67
2021/08/30 10:49:22;;;;;;;9.40;8.50;;;15.70;99.90;;;;;;5027891;28;20464;-68
2021/08/30 10:51:50;;;;;;;9.83;8.50;;;15.70;99.90;;;;;;5028184;28;20561;-68
2021/08/30 10:54:20;;;;;;;10.40;9.30;;;15.70;99.90;;;;;;5028707;28;20471;-68
2021/08/30 10:57:02;;;;;;;10.30;9.20;;;15.60;99.90;;;;;;5028263;28;20490;-68
2021/08/30 10:59:31;;;;;;;11.93;9.30;;;15.70;99.90;;;;;;5028231;28;20904;-68
2021/08/30 11:01:59;;;;;;;9.50;8.23;;;15.70;99.90;;;;;;5028463;28;20936;-68
2021/08/30 11:04:33;;;;;;;10.17;8.63;;;15.80;99.90;;;;;;5028017;28;20496;-67
2021/08/30 11:07:00;;;;;;;9.40;7.97;;;15.90;99.90;;;;;;5028387;28;20861;-68
2021/08/30 11:09:28;;;;;;;9.00;7.97;;;15.80;99.90;;;;;;5027454;28;20460;-67
2021/08/30 11:11:55;;;;;;;9.70;8.13;;;15.80;99.90;;;;;;5028246;28;20467;-68
2021/08/30 11:14:22;;;;;;;10.90;8.60;;;15.80;99.90;;;;;;5028554;28;20563;-67
2021/08/30 11:16:56;;;;;;;10.13;8.13;;;15.70;99.90;;;;;;5027755;28;20480;-68
2021/08/30 11:19:24;;;;;;;8.40;7.60;;;15.70;99.90;;;;;;5027568;28;20491;-67
2021/08/30 11:21:54;;;;;;;8.53;7.43;;;15.60;99.90;;;;;;5027814;28;20460;-68
2021/08/30 11:24:30;;;;;;;8.80;7.90;;;15.50;99.90;;;;;;5028169;28;20483;-68
2021/08/30 11:26:59;;;;;;;9.73;8.53;;;15.50;99.90;;;;;;5027913;28;20810;-68
2021/08/30 11:29:26;;;;;;;9.00;8.10;;;15.50;99.90;;;;;;5027838;28;20464;-68
2021/08/30 11:31:53;;;;;;;9.77;8.53;;;15.50;99.90;;;;;;5027682;28;20468;-68
2021/08/30 11:34:26;;;;;;;9.30;8.30;;;15.60;99.90;;;;;;5027342;28;20866;-68
2021/08/30 11:36:55;;;;;;;9.20;8.30;;;15.80;99.90;;;;;;5027894;28;20489;-68
2021/08/30 11:39:23;;;;;;;11.20;8.30;;;15.90;99.90;;;;;;5027235;28;20551;-68
2021/08/30 11:41:56;;;;;;;9.17;7.70;;;16.00;99.90;;;;;;5027228;28;20475;-68
2021/08/30 11:44:24;;;;;;;9.40;8.50;;;16.10;99.90;;;;;;5027412;28;20464;-68
2021/08/30 11:46:54;;;;;;;8.13;7.30;;;16.10;99.90;;;;;;5026347;28;20490;-67
2021/08/30 11:49:22;;;;;;;8.30;6.97;;;16.10;99.90;;;;;;5027476;28;20457;-67
2021/08/30 11:51:49;;;;;;;8.10;7.33;;;16.10;99.90;;;;;;5030384;28;20959;-67
2021/08/30 11:54:19;;;;;;;8.40;7.60;;;16.20;99.90;;;;;;5030942;28;20495;-67
2021/08/30 11:56:53;;;;;;;9.30;8.00;;;16.20;99.90;;;;;;5029955;28;20862;-67
2021/08/30 11:59:32;;;;;;;10.00;8.47;;;16.30;99.90;;;;;;5036023;28;20475;-67
2021/08/30 12:01:59;;;;;;;8.60;7.80;;;16.20;99.90;;;;;;5049959;28;20459;-67
2021/08/30 12:04:29;;;;;;;9.07;8.07;;;16.20;99.90;;;;;;5050543;28;20463;-67
2021/08/30 12:06:57;;;;;;;9.87;8.87;;;16.10;99.90;;;;;;5050886;28;20479;-69
2021/08/30 12:09:25;;;;;;;9.20;8.30;;;16.10;99.90;;;;;;5050017;28;20463;-67
2021/08/30 12:11:54;;;;;;;11.30;9.87;;;16.10;99.90;;;;;;5030371;28;20878;-67
2021/08/30 12:14:24;;;;;;;10.23;8.97;;;16.10;99.90;;;;;;5035761;28;20827;-67
2021/08/30 12:16:58;;;;;;;9.50;7.93;;;16.10;99.90;;;;;;5050242;28;20510;-67
2021/08/30 12:19:26;;;;;;;11.40;9.13;;;16.10;99.90;;;;;;5049632;28;20482;-67
2021/08/30 12:21:54;;;;;;;10.57;8.83;;;16.10;99.90;;;;;;5049915;28;20466;-67
2021/08/30 12:24:22;;;;;;;9.50;8.60;;;16.00;99.90;;;;;;5050421;28;20508;-67
2021/08/30 12:26:52;;;;;;;10.73;9.10;;;16.00;99.90;;;;;;5040726;28;20476;-67
2021/08/30 12:29:19;;;;;;;10.07;9.07;;;16.10;99.90;;;;;;5030131;28;20484;-69
2021/08/30 12:31:52;;;;;;;9.40;7.90;;;16.20;99.90;;;;;;5029852;28;20486;-67
2021/08/30 12:34:23;;;;;;;9.90;8.10;;;16.30;99.90;;;;;;5030227;28;20843;-66
2021/08/30 12:36:49;;;;;;;9.27;8.20;;;16.30;99.90;;;;;;5030126;28;20589;-67
2021/08/30 12:39:16;;;;;;;8.87;7.97;;;16.30;99.90;;;;;;5029553;28;20456;-66
2021/08/30 12:41:43;;;;;;;9.07;8.17;;;16.20;99.90;;;;;;5030642;28;20535;-67
2021/08/30 12:44:11;;;;;;;9.53;8.50;;;16.30;99.90;;;;;;5030648;28;20460;-67
2021/08/30 12:46:38;;;;;;;9.67;7.10;;;16.30;99.90;;;;;;5030647;28;20869;-67
2021/08/30 12:49:05;;;;;;;9.10;8.20;;;16.30;99.90;;;;;;5029896;28;20464;-66
2021/08/30 12:51:32;;;;;;;10.60;9.13;;;16.30;99.90;;;;;;5030584;28;20456;-67
2021/08/30 12:53:58;;;;;;;9.77;8.77;;;16.30;99.90;;;;;;5030498;28;20471;-67